Time;durP1;ratioP1;P1;durP2;ratioP2;P2;SDS_P1;SDS_P2;PMS_P1;PMS_P2;Temp;Humidity;BMP_temperature;BMP_pressure;BME280_temperature;BME280_humidity;BME280_pressure;Samples;Min_cycle;Max_cycle;Signal;HPM_P1;HPM_P2
2021/11/16 00:02:54;;;;;;;5.98;5.33;;;;;;;19.03;53.99;100998.41;;;;-55
2021/11/16 00:05:54;;;;;;;5.81;5.16;;;;;;;19.02;54.03;101003.73;;;;-55
2021/11/16 00:08:54;;;;;;;5.71;5.11;;;;;;;19.00;54.01;101003.70;;;;-55
2021/11/16 00:11:54;;;;;;;6.11;5.45;;;;;;;18.99;54.03;101000.61;;;;-58
2021/11/16 00:14:54;;;;;;;7.13;4.97;;;;;;;18.97;54.03;101000.33;;;;-58
2021/11/16 00:17:54;;;;;;;5.57;4.94;;;;;;;18.97;54.03;100998.88;;;;-58
2021/11/16 00:20:54;;;;;;;6.34;5.29;;;;;;;18.95;54.03;100996.48;;;;-58
2021/11/16 00:23:56;;;;;;;6.35;5.34;;;;;;;18.95;54.08;100992.26;;;;-51
2021/11/16 00:26:54;;;;;;;5.79;4.89;;;;;;;18.93;54.04;100989.63;;;;-52
2021/11/16 00:29:54;;;;;;;6.17;4.98;;;;;;;18.93;54.08;100994.50;;;;-52
2021/11/16 00:32:54;;;;;;;5.91;5.05;;;;;;;18.91;54.07;100990.32;;;;-52
2021/11/16 00:35:54;;;;;;;5.87;5.17;;;;;;;18.91;54.10;100991.05;;;;-52
2021/11/16 00:38:54;;;;;;;5.89;5.03;;;;;;;18.89;54.08;100993.61;;;;-49
2021/11/16 00:41:54;;;;;;;5.48;4.93;;;;;;;18.88;54.09;101000.00;;;;-58
2021/11/16 00:44:54;;;;;;;5.39;4.89;;;;;;;18.87;54.09;100997.55;;;;-58
2021/11/16 00:47:54;;;;;;;5.97;5.27;;;;;;;18.87;54.13;100996.98;;;;-59
2021/11/16 00:50:56;;;;;;;5.91;5.02;;;;;;;18.86;54.19;100995.00;;;;-55
2021/11/16 00:53:54;;;;;;;5.63;4.99;;;;;;;18.85;54.11;101000.77;;;;-55
2021/11/16 00:56:54;;;;;;;5.30;4.80;;;;;;;18.83;54.15;101005.44;;;;-49
2021/11/16 00:59:54;;;;;;;5.58;4.97;;;;;;;18.82;54.17;101005.98;;;;-49
2021/11/16 01:02:54;;;;;;;5.55;5.05;;;;;;;18.81;54.23;101005.81;;;;-51
2021/11/16 01:05:54;;;;;;;6.05;5.03;;;;;;;18.80;54.19;101009.55;;;;-52
2021/11/16 01:08:54;;;;;;;5.56;4.95;;;;;;;18.78;54.24;101010.08;;;;-51
2021/11/16 01:11:54;;;;;;;6.00;5.29;;;;;;;18.77;54.23;101008.55;;;;-52
2021/11/16 01:14:54;;;;;;;5.23;4.61;;;;;;;18.77;54.29;101008.95;;;;-55
2021/11/16 01:17:54;;;;;;;5.10;4.60;;;;;;;18.75;54.26;101009.24;;;;-55
2021/11/16 01:20:54;;;;;;;5.77;4.95;;;;;;;18.75;54.28;101012.09;;;;-55
2021/11/16 01:23:54;;;;;;;5.31;4.78;;;;;;;18.74;54.29;101009.00;;;;-55
2021/11/16 01:26:54;;;;;;;5.42;4.77;;;;;;;18.74;54.31;101009.70;;;;-55
2021/11/16 01:29:55;;;;;;;5.02;4.52;;;;;;;18.73;54.30;101007.91;;;;-58
2021/11/16 01:33:02;;;;;;;5.97;5.05;;;;;;;18.71;54.31;101004.13;;;;-58
2021/11/16 01:35:54;;;;;;;5.43;4.83;;;;;;;18.71;54.29;101004.86;;;;-58
2021/11/16 01:38:55;;;;;;;5.33;4.83;;;;;;;18.69;54.31;101002.31;;;;-58
2021/11/16 01:41:54;;;;;;;5.35;4.85;;;;;;;18.69;54.30;101003.45;;;;-58
2021/11/16 01:44:54;;;;;;;5.47;4.97;;;;;;;18.69;54.32;101002.55;;;;-49
2021/11/16 01:47:54;;;;;;;5.94;5.19;;;;;;;18.67;54.32;101002.92;;;;-49
2021/11/16 01:50:54;;;;;;;5.53;4.73;;;;;;;18.67;54.36;101005.11;;;;-51
2021/11/16 01:53:54;;;;;;;5.55;4.89;;;;;;;18.64;54.39;101003.13;;;;-49
2021/11/16 01:56:54;;;;;;;5.35;4.73;;;;;;;18.64;54.37;101001.83;;;;-49
2021/11/16 01:59:54;;;;;;;5.13;4.63;;;;;;;18.63;54.38;101002.93;;;;-55
2021/11/16 02:02:54;;;;;;;5.33;4.74;;;;;;;18.62;54.37;100998.14;;;;-55
2021/11/16 02:05:54;;;;;;;5.42;4.85;;;;;;;18.62;54.40;100997.24;;;;-55
2021/11/16 02:08:54;;;;;;;5.52;4.75;;;;;;;18.61;54.40;100995.59;;;;-55
2021/11/16 02:11:54;;;;;;;5.26;4.65;;;;;;;18.60;54.38;100995.83;;;;-56
2021/11/16 02:14:54;;;;;;;5.64;5.05;;;;;;;18.60;54.40;100990.95;;;;-56
2021/11/16 02:17:54;;;;;;;4.99;4.49;;;;;;;18.58;54.39;100987.99;;;;-56
2021/11/16 02:20:54;;;;;;;5.54;4.97;;;;;;;18.58;54.41;100983.53;;;;-55
2021/11/16 02:23:54;;;;;;;5.00;4.50;;;;;;;18.56;54.43;100980.00;;;;-55
2021/11/16 02:26:54;;;;;;;5.55;4.99;;;;;;;18.56;54.42;100976.52;;;;-60
2021/11/16 02:29:54;;;;;;;5.44;4.89;;;;;;;18.56;54.42;100977.48;;;;-58
2021/11/16 02:32:54;;;;;;;5.82;4.91;;;;;;;18.55;54.45;100978.05;;;;-58
2021/11/16 02:35:54;;;;;;;5.07;4.51;;;;;;;18.54;54.44;100976.64;;;;-52
2021/11/16 02:38:54;;;;;;;5.59;4.79;;;;;;;18.54;54.54;100980.94;;;;-52
2021/11/16 02:41:54;;;;;;;5.11;4.61;;;;;;;18.53;54.44;100974.81;;;;-52
2021/11/16 02:44:54;;;;;;;5.12;4.62;;;;;;;18.52;54.46;100974.73;;;;-52
2021/11/16 02:47:54;;;;;;;5.44;4.75;;;;;;;18.52;54.46;100975.95;;;;-52
2021/11/16 02:50:54;;;;;;;5.24;4.58;;;;;;;18.51;54.46;100970.99;;;;-52
2021/11/16 02:53:54;;;;;;;5.20;4.70;;;;;;;18.51;54.47;100969.05;;;;-51
2021/11/16 02:56:54;;;;;;;5.37;4.83;;;;;;;18.50;54.50;100966.58;;;;-52
2021/11/16 02:59:54;;;;;;;5.49;4.92;;;;;;;18.49;54.52;100963.54;;;;-52
2021/11/16 03:02:54;;;;;;;4.87;4.35;;;;;;;18.48;54.48;100962.89;;;;-51
2021/11/16 03:05:54;;;;;;;5.84;5.06;;;;;;;18.48;54.49;100961.27;;;;-49
2021/11/16 03:08:54;;;;;;;5.19;4.59;;;;;;;18.47;54.54;100958.95;;;;-49
2021/11/16 03:11:54;;;;;;;5.28;4.74;;;;;;;18.48;54.53;100958.17;;;;-55
2021/11/16 03:14:54;;;;;;;5.01;4.49;;;;;;;18.45;54.56;100956.11;;;;-55
2021/11/16 03:17:54;;;;;;;4.84;4.34;;;;;;;18.45;54.54;100955.63;;;;-55
2021/11/16 03:20:54;;;;;;;5.17;4.67;;;;;;;18.44;54.51;100955.51;;;;-55
2021/11/16 03:23:56;;;;;;;5.26;4.76;;;;;;;18.44;54.56;100952.75;;;;-58
2021/11/16 03:26:54;;;;;;;5.07;4.53;;;;;;;18.43;54.56;100949.74;;;;-58
2021/11/16 03:29:57;;;;;;;5.10;4.60;;;;;;;18.42;54.56;100947.11;;;;-58
2021/11/16 03:32:54;;;;;;;4.87;4.37;;;;;;;18.41;54.58;100941.91;;;;-58
2021/11/16 03:35:54;;;;;;;4.93;4.43;;;;;;;18.41;54.56;100939.97;;;;-59
2021/11/16 03:38:54;;;;;;;5.29;4.77;;;;;;;18.41;54.57;100935.26;;;;-57
2021/11/16 03:41:54;;;;;;;5.35;4.44;;;;;;;18.41;54.56;100932.39;;;;-58
2021/11/16 03:44:54;;;;;;;5.07;4.57;;;;;;;18.40;54.56;100931.41;;;;-58
2021/11/16 03:47:54;;;;;;;5.20;4.70;;;;;;;18.40;54.63;100927.35;;;;-58
2021/11/16 03:50:54;;;;;;;5.07;4.57;;;;;;;18.39;54.57;100923.21;;;;-58
2021/11/16 03:53:54;;;;;;;5.01;4.51;;;;;;;18.39;54.59;100920.78;;;;-55
2021/11/16 03:57:00;;;;;;;5.13;4.63;;;;;;;18.37;54.60;100925.61;;;;-55
2021/11/16 03:59:54;;;;;;;5.05;4.55;;;;;;;18.37;54.63;100923.58;;;;-55
2021/11/16 04:02:54;;;;;;;5.29;4.57;;;;;;;18.35;54.64;100920.38;;;;-55
2021/11/16 04:05:54;;;;;;;5.16;4.53;;;;;;;18.35;54.64;100919.65;;;;-53
2021/11/16 04:08:54;;;;;;;6.16;4.47;;;;;;;18.35;54.63;100919.24;;;;-55
2021/11/16 04:11:54;;;;;;;4.88;4.27;;;;;;;18.35;54.68;100918.75;;;;-49
2021/11/16 04:14:54;;;;;;;4.85;4.36;;;;;;;18.34;54.68;100914.98;;;;-49
2021/11/16 04:17:54;;;;;;;4.99;4.48;;;;;;;18.32;54.63;100917.50;;;;-51
2021/11/16 04:20:54;;;;;;;5.01;4.47;;;;;;;18.32;54.70;100915.92;;;;-49
2021/11/16 04:23:54;;;;;;;5.29;4.35;;;;;;;18.32;54.71;100917.63;;;;-49
2021/11/16 04:26:54;;;;;;;5.49;4.65;;;;;;;18.32;54.65;100916.73;;;;-49
2021/11/16 04:29:54;;;;;;;5.92;4.80;;;;;;;18.31;54.66;100916.48;;;;-52
2021/11/16 04:32:54;;;;;;;5.01;4.51;;;;;;;18.30;54.68;100919.13;;;;-58
2021/11/16 04:35:54;;;;;;;4.93;4.43;;;;;;;18.31;54.66;100918.52;;;;-58
2021/11/16 04:38:54;;;;;;;4.92;4.42;;;;;;;18.29;54.69;100916.69;;;;-58
2021/11/16 04:41:54;;;;;;;4.91;4.39;;;;;;;18.28;54.73;100917.75;;;;-58
2021/11/16 04:44:54;;;;;;;4.62;4.20;;;;;;;18.28;54.73;100914.87;;;;-58
2021/11/16 04:47:56;;;;;;;4.82;4.27;;;;;;;18.28;54.74;100914.26;;;;-52
2021/11/16 04:51:05;;;;;;;5.06;4.43;;;;;;;18.27;54.66;100908.87;;;;-52
2021/11/16 04:54:16;;;;;;;4.95;4.35;;;;;;;18.27;54.74;100912.03;;;;-49
2021/11/16 05:02:34;;;;;;;5.15;4.49;;;;;;;18.26;54.75;100906.19;;;;-60
2021/11/16 05:02:54;;;;;;;4.76;4.26;;;;;;;18.26;54.72;100907.05;;;;-52
2021/11/16 05:05:54;;;;;;;4.96;4.46;;;;;;;18.25;54.72;100908.75;;;;-51
2021/11/16 05:08:55;;;;;;;4.94;4.43;;;;;;;18.25;54.68;100910.86;;;;-52
2021/11/16 05:11:55;;;;;;;4.52;4.09;;;;;;;18.24;54.75;100910.77;;;;-52
2021/11/16 05:14:54;;;;;;;4.65;4.17;;;;;;;18.23;54.76;100913.98;;;;-60
2021/11/16 05:17:54;;;;;;;4.99;4.48;;;;;;;18.23;54.69;100916.17;;;;-58
2021/11/16 05:20:54;;;;;;;4.83;4.35;;;;;;;18.22;54.72;100922.82;;;;-58
2021/11/16 05:23:54;;;;;;;4.95;4.45;;;;;;;18.22;54.71;100927.12;;;;-60
2021/11/16 05:26:54;;;;;;;4.75;4.26;;;;;;;18.22;54.74;100925.74;;;;-59
2021/11/16 05:29:54;;;;;;;5.05;4.27;;;;;;;18.22;54.74;100926.80;;;;-58
2021/11/16 05:32:54;;;;;;;5.25;3.99;;;;;;;18.21;54.75;100926.20;;;;-58
2021/11/16 05:35:58;;;;;;;4.74;4.19;;;;;;;18.21;54.79;100930.58;;;;-55
2021/11/16 05:38:54;;;;;;;5.37;4.65;;;;;;;18.20;54.69;100931.70;;;;-56
2021/11/16 05:41:54;;;;;;;4.99;4.48;;;;;;;18.20;54.74;100929.48;;;;-54
2021/11/16 05:44:54;;;;;;;4.93;4.44;;;;;;;18.20;54.71;100933.22;;;;-49
2021/11/16 05:47:54;;;;;;;4.83;4.29;;;;;;;18.19;54.74;100939.95;;;;-49
2021/11/16 05:50:54;;;;;;;4.99;4.48;;;;;;;18.18;54.75;100939.53;;;;-49
2021/11/16 05:53:57;;;;;;;4.83;4.32;;;;;;;18.18;54.76;100942.70;;;;-49
2021/11/16 05:56:54;;;;;;;4.87;4.37;;;;;;;18.18;54.78;100945.34;;;;-49
2021/11/16 05:59:54;;;;;;;4.50;4.10;;;;;;;18.17;54.78;100942.83;;;;-49
2021/11/16 06:02:54;;;;;;;4.71;4.21;;;;;;;18.18;54.79;100946.97;;;;-52
2021/11/16 06:05:54;;;;;;;4.70;4.29;;;;;;;18.17;54.82;100950.70;;;;-52
2021/11/16 06:08:54;;;;;;;4.83;4.33;;;;;;;18.16;54.76;100951.26;;;;-52
2021/11/16 06:11:54;;;;;;;4.97;4.47;;;;;;;18.16;54.79;100954.59;;;;-52
2021/11/16 06:14:54;;;;;;;9.19;5.75;;;;;;;18.16;54.30;100957.31;;;;-51
2021/11/16 06:17:54;;;;;;;10.91;7.73;;;;;;;18.13;53.58;100961.00;;;;-49
2021/11/16 06:20:54;;;;;;;14.36;9.00;;;;;;;18.10;53.29;100962.25;;;;-49
2021/11/16 06:23:54;;;;;;;11.85;9.50;;;;;;;18.05;52.99;100965.61;;;;-49
2021/11/16 06:26:54;;;;;;;13.39;9.73;;;;;;;18.02;52.77;100971.16;;;;-50
2021/11/16 06:29:54;;;;;;;14.00;10.21;;;;;;;18.00;52.55;100970.15;;;;-59
2021/11/16 06:32:54;;;;;;;13.63;10.27;;;;;;;17.96;52.52;100969.74;;;;-56
2021/11/16 06:35:54;;;;;;;14.90;11.20;;;;;;;17.94;52.47;100973.59;;;;-52
2021/11/16 06:38:54;;;;;;;15.99;10.93;;;;;;;17.92;52.40;100973.38;;;;-52
2021/11/16 06:41:55;;;;;;;15.50;11.29;;;;;;;17.91;52.29;100977.73;;;;-52
2021/11/16 06:44:54;;;;;;;16.34;11.53;;;;;;;17.88;52.20;100976.38;;;;-58
2021/11/16 06:47:54;;;;;;;16.74;11.69;;;;;;;17.86;52.09;100979.58;;;;-57
2021/11/16 06:50:54;;;;;;;15.39;10.99;;;;;;;17.89;52.52;100982.26;;;;-59
2021/11/16 06:53:54;;;;;;;14.35;10.39;;;;;;;17.92;52.91;100982.47;;;;-57
2021/11/16 06:56:54;;;;;;;14.53;10.17;;;;;;;17.94;53.02;100985.51;;;;-57
2021/11/16 06:59:54;;;;;;;12.62;8.85;;;;;;;17.96;53.15;100983.77;;;;-59
2021/11/16 07:02:54;;;;;;;12.93;9.40;;;;;;;17.98;53.21;100982.84;;;;-58
2021/11/16 07:05:56;;;;;;;13.84;8.95;;;;;;;18.02;53.33;100982.92;;;;-59
2021/11/16 07:08:54;;;;;;;12.49;8.91;;;;;;;18.03;53.41;100983.09;;;;-57
2021/11/16 07:11:54;;;;;;;12.65;8.72;;;;;;;18.06;53.46;100986.42;;;;-51
2021/11/16 07:14:54;;;;;;;12.39;8.57;;;;;;;18.09;53.57;100990.27;;;;-52
2021/11/16 07:17:54;;;;;;;11.53;8.34;;;;;;;18.11;53.65;100991.61;;;;-51
2021/11/16 07:20:54;;;;;;;10.51;7.66;;;;;;;18.12;53.69;100989.95;;;;-57
2021/11/16 07:23:54;;;;;;;11.91;7.93;;;;;;;18.15;53.72;100995.42;;;;-58
2021/11/16 07:26:54;;;;;;;10.85;7.93;;;;;;;18.15;53.81;100997.45;;;;-59
2021/11/16 07:29:54;;;;;;;9.73;7.29;;;;;;;18.17;53.84;100996.61;;;;-57
2021/11/16 07:32:54;;;;;;;10.12;7.47;;;;;;;18.17;53.84;100997.98;;;;-51
2021/11/16 07:35:54;;;;;;;9.46;6.95;;;;;;;18.18;53.89;101001.92;;;;-51
2021/11/16 07:38:54;;;;;;;8.39;6.93;;;;;;;18.20;53.89;101002.94;;;;-52
2021/11/16 07:41:54;;;;;;;8.79;6.81;;;;;;;18.21;53.93;101007.31;;;;-53
2021/11/16 07:44:54;;;;;;;10.25;7.18;;;;;;;18.21;53.92;101001.96;;;;-52
2021/11/16 07:47:54;;;;;;;9.15;7.15;;;;;;;18.22;53.95;101001.08;;;;-51
2021/11/16 07:50:54;;;;;;;7.87;6.43;;;;;;;18.23;53.99;101002.16;;;;-51
2021/11/16 07:53:55;;;;;;;8.71;6.83;;;;;;;18.22;54.09;101001.92;;;;-51
2021/11/16 07:56:54;;;;;;;8.61;6.57;;;;;;;18.24;54.04;101004.28;;;;-51
2021/11/16 07:59:55;;;;;;;8.39;6.72;;;;;;;18.23;54.07;101001.77;;;;-51
2021/11/16 08:02:58;;;;;;;8.32;6.59;;;;;;;18.23;54.03;101002.73;;;;-57
2021/11/16 08:06:00;;;;;;;9.15;7.10;;;;;;;18.23;54.09;101001.92;;;;-57
2021/11/16 08:09:06;;;;;;;8.21;6.55;;;;;;;18.23;54.08;101001.36;;;;-59
2021/11/16 08:11:59;;;;;;;8.20;6.59;;;;;;;18.24;54.14;101005.05;;;;-57
2021/11/16 08:14:54;;;;;;;8.96;6.79;;;;;;;18.24;54.13;101007.56;;;;-57
2021/11/16 08:17:54;;;;;;;8.14;6.61;;;;;;;18.24;54.11;101004.31;;;;-58
2021/11/16 08:20:54;;;;;;;8.66;6.59;;;;;;;18.24;54.11;101007.36;;;;-57
2021/11/16 08:23:54;;;;;;;7.39;6.17;;;;;;;18.24;54.10;101007.16;;;;-57
2021/11/16 08:26:54;;;;;;;7.70;6.20;;;;;;;18.24;54.13;101005.82;;;;-58
2021/11/16 08:29:54;;;;;;;7.37;6.15;;;;;;;18.23;54.09;101001.52;;;;-55
2021/11/16 08:32:57;;;;;;;7.78;6.39;;;;;;;18.23;54.11;101007.52;;;;-57
2021/11/16 08:35:54;;;;;;;7.90;6.42;;;;;;;18.23;54.13;101012.31;;;;-56
2021/11/16 08:38:54;;;;;;;7.59;6.15;;;;;;;18.23;54.15;101006.06;;;;-52
2021/11/16 08:41:54;;;;;;;7.54;6.33;;;;;;;18.23;54.16;101005.33;;;;-52
2021/11/16 08:44:56;;;;;;;7.68;6.18;;;;;;;18.23;54.15;101004.77;;;;-58
2021/11/16 08:47:54;;;;;;;7.38;6.09;;;;;;;18.22;54.16;101002.57;;;;-51
2021/11/16 08:50:54;;;;;;;7.29;6.24;;;;;;;18.23;54.15;101004.28;;;;-51
2021/11/16 08:53:54;;;;;;;6.92;5.97;;;;;;;18.22;54.19;101009.30;;;;-52
2021/11/16 08:56:54;;;;;;;7.23;6.05;;;;;;;18.22;54.20;101011.46;;;;-51
2021/11/16 08:59:54;;;;;;;7.86;6.23;;;;;;;18.21;54.18;101010.56;;;;-57
2021/11/16 09:02:54;;;;;;;7.18;5.84;;;;;;;18.21;54.18;101013.31;;;;-56
2021/11/16 09:05:54;;;;;;;6.83;5.77;;;;;;;18.21;54.19;101013.80;;;;-57
2021/11/16 09:08:54;;;;;;;7.45;6.08;;;;;;;18.21;54.20;101017.70;;;;-51
2021/11/16 09:11:54;;;;;;;7.47;5.92;;;;;;;18.20;54.18;101016.40;;;;-51
2021/11/16 09:14:55;;;;;;;7.19;5.96;;;;;;;18.19;54.23;101008.01;;;;-58
2021/11/16 09:17:54;;;;;;;6.91;5.71;;;;;;;18.19;54.26;101009.63;;;;-52
2021/11/16 09:20:54;;;;;;;7.00;5.81;;;;;;;18.20;54.22;101011.41;;;;-52
2021/11/16 09:23:54;;;;;;;7.21;5.93;;;;;;;18.19;54.26;101005.73;;;;-58
2021/11/16 09:27:09;;;;;;;7.14;5.95;;;;;;;18.18;54.28;101008.98;;;;-52
2021/11/16 09:29:54;;;;;;;7.32;5.98;;;;;;;18.18;54.26;101007.97;;;;-51
2021/11/16 09:32:54;;;;;;;6.52;5.77;;;;;;;18.18;54.27;101008.45;;;;-52
2021/11/16 09:35:54;;;;;;;6.99;5.97;;;;;;;18.18;54.44;101007.11;;;;-48
2021/11/16 09:38:56;;;;;;;8.37;6.37;;;;;;;18.19;54.50;101003.38;;;;-50
2021/11/16 09:41:53;;;;;;;9.95;5.97;;;;;;;18.23;54.73;101004.59;;;;-48
2021/11/16 09:44:54;;;;;;;8.54;6.02;;;;;;;18.25;54.85;101008.12;;;;-52
2021/11/16 09:47:54;;;;;;;11.29;6.41;;;;;;;18.30;55.11;101008.62;;;;-53
2021/11/16 09:50:54;;;;;;;8.73;5.93;;;;;;;18.34;55.09;101007.81;;;;-52
2021/11/16 09:53:54;;;;;;;7.79;5.69;;;;;;;18.40;55.26;101007.04;;;;-58
2021/11/16 09:56:54;;;;;;;7.13;5.86;;;;;;;18.45;55.26;101000.17;;;;-54
2021/11/16 09:59:53;;;;;;;7.35;5.67;;;;;;;18.50;55.22;100999.13;;;;-54
2021/11/16 10:02:54;;;;;;;8.03;5.93;;;;;;;18.56;55.17;101001.43;;;;-55
2021/11/16 10:05:54;;;;;;;7.33;5.80;;;;;;;18.61;55.43;100999.16;;;;-56
2021/11/16 10:08:54;;;;;;;6.95;5.60;;;;;;;18.67;55.40;100994.16;;;;-54
2021/11/16 10:11:54;;;;;;;6.41;5.46;;;;;;;18.74;55.38;100993.16;;;;-56
2021/11/16 10:14:54;;;;;;;6.12;5.19;;;;;;;18.77;55.13;100994.83;;;;-54
2021/11/16 10:17:54;;;;;;;6.46;5.49;;;;;;;18.83;55.27;100999.35;;;;-57
2021/11/16 10:20:54;;;;;;;6.72;5.37;;;;;;;18.88;55.21;100996.58;;;;-60
2021/11/16 10:23:56;;;;;;;7.56;5.36;;;;;;;18.91;55.20;100999.01;;;;-49
2021/11/16 10:26:54;;;;;;;6.67;5.39;;;;;;;18.95;55.10;100998.27;;;;-48
2021/11/16 10:29:53;;;;;;;8.58;5.51;;;;;;;19.00;55.38;100991.52;;;;-51
2021/11/16 10:32:54;;;;;;;6.26;5.34;;;;;;;19.05;55.24;100990.77;;;;-50
2021/11/16 10:35:54;;;;;;;7.85;5.33;;;;;;;19.09;55.31;100991.81;;;;-51
2021/11/16 10:38:56;;;;;;;7.63;5.37;;;;;;;19.13;55.18;100993.51;;;;-50
2021/11/16 10:41:56;;;;;;;10.47;7.53;;;;;;;19.11;54.19;100997.94;;;;-48
2021/11/16 10:44:54;;;;;;;8.46;6.83;;;;;;;19.15;54.09;100992.41;;;;-48
2021/11/16 10:47:54;;;;;;;10.75;6.37;;;;;;;19.20;54.83;100992.59;;;;-48
2021/11/16 10:50:54;;;;;;;7.97;5.74;;;;;;;19.22;54.82;100995.38;;;;-47
2021/11/16 10:53:54;;;;;;;7.43;5.77;;;;;;;19.24;54.92;100990.62;;;;-53
2021/11/16 10:56:53;;;;;;;8.05;5.45;;;;;;;19.26;54.83;100985.94;;;;-49
2021/11/16 10:59:54;;;;;;;6.52;5.49;;;;;;;19.31;54.96;100987.38;;;;-52
2021/11/16 11:02:54;;;;;;;7.49;5.29;;;;;;;19.34;54.89;100986.03;;;;-51
2021/11/16 11:05:54;;;;;;;7.03;5.30;;;;;;;19.37;54.88;100983.25;;;;-51
2021/11/16 11:08:54;;;;;;;6.73;5.25;;;;;;;19.38;55.04;100979.22;;;;-51
2021/11/16 11:11:54;;;;;;;6.58;5.24;;;;;;;19.42;55.21;100973.40;;;;-51
2021/11/16 11:14:55;;;;;;;7.55;4.91;;;;;;;19.45;55.14;100966.39;;;;-54
2021/11/16 11:17:54;;;;;;;6.55;5.45;;;;;;;19.48;55.04;100966.98;;;;-55
2021/11/16 11:20:54;;;;;;;8.11;5.36;;;;;;;19.52;55.06;100965.66;;;;-54
2021/11/16 11:23:56;;;;;;;8.62;5.37;;;;;;;19.50;54.76;100961.08;;;;-54
2021/11/16 11:26:55;;;;;;;6.20;4.99;;;;;;;19.51;54.70;100957.62;;;;-54
2021/11/16 11:29:55;;;;;;;7.06;5.13;;;;;;;19.51;54.42;100952.95;;;;-52
2021/11/16 11:32:54;;;;;;;5.70;4.85;;;;;;;19.51;54.40;100946.13;;;;-53
2021/11/16 11:35:54;;;;;;;6.25;5.03;;;;;;;19.51;54.38;100941.92;;;;-54
2021/11/16 11:38:54;;;;;;;5.50;4.76;;;;;;;19.52;54.34;100940.05;;;;-54
2021/11/16 11:41:54;;;;;;;7.51;4.75;;;;;;;19.52;54.33;100943.95;;;;-51
2021/11/16 11:44:55;;;;;;;6.77;5.22;;;;;;;19.52;54.34;100940.88;;;;-54
2021/11/16 11:47:54;;;;;;;5.62;4.78;;;;;;;19.54;54.31;100943.91;;;;-54
2021/11/16 11:50:54;;;;;;;6.11;4.83;;;;;;;19.54;54.33;100939.11;;;;-54
2021/11/16 11:53:54;;;;;;;6.27;4.86;;;;;;;19.54;54.34;100940.08;;;;-51
2021/11/16 11:56:55;;;;;;;6.26;4.93;;;;;;;19.56;54.33;100946.94;;;;-52
2021/11/16 11:59:54;;;;;;;8.70;4.80;;;;;;;19.56;54.25;100941.17;;;;-52
2021/11/16 12:02:53;;;;;;;5.29;4.79;;;;;;;19.57;54.28;100935.31;;;;-54
2021/11/16 12:05:54;;;;;;;7.37;4.92;;;;;;;19.59;54.42;100936.64;;;;-54
2021/11/16 12:08:54;;;;;;;7.50;5.96;;;;;;;19.57;53.63;100939.17;;;;-49
2021/11/16 12:11:54;;;;;;;7.68;6.17;;;;;;;19.57;53.53;100936.56;;;;-59
2021/11/16 12:14:54;;;;;;;8.22;6.13;;;;;;;19.58;53.67;100935.34;;;;-48
2021/11/16 12:17:54;;;;;;;6.43;5.20;;;;;;;19.59;53.67;100936.11;;;;-59
2021/11/16 12:20:56;;;;;;;7.49;5.27;;;;;;;19.59;53.77;100934.70;;;;-59
2021/11/16 12:23:55;;;;;;;7.69;5.13;;;;;;;19.60;53.89;100936.02;;;;-59
2021/11/16 12:26:54;;;;;;;6.67;5.31;;;;;;;19.59;53.83;100935.05;;;;-59
2021/11/16 12:29:54;;;;;;;6.51;5.07;;;;;;;19.59;53.87;100933.18;;;;-51
2021/11/16 12:32:53;;;;;;;7.86;5.31;;;;;;;19.59;53.88;100928.95;;;;-51
2021/11/16 12:35:54;;;;;;;6.45;5.34;;;;;;;19.59;53.89;100922.20;;;;-51
2021/11/16 12:38:54;;;;;;;7.00;4.97;;;;;;;19.60;53.86;100924.31;;;;-51
2021/11/16 12:41:54;;;;;;;6.42;5.37;;;;;;;19.59;53.83;100917.78;;;;-54
2021/11/16 12:44:57;;;;;;;6.23;5.15;;;;;;;19.59;53.86;100913.34;;;;-50
2021/11/16 12:47:53;;;;;;;7.03;5.05;;;;;;;19.60;53.84;100912.20;;;;-54
2021/11/16 12:50:53;;;;;;;6.35;4.93;;;;;;;19.60;53.83;100913.83;;;;-54
2021/11/16 12:53:54;;;;;;;5.88;4.89;;;;;;;19.60;53.82;100903.91;;;;-54
2021/11/16 12:56:54;;;;;;;6.05;5.17;;;;;;;19.61;53.83;100899.59;;;;-51
2021/11/16 12:59:54;;;;;;;5.74;4.61;;;;;;;19.61;53.87;100901.80;;;;-51
2021/11/16 13:02:54;;;;;;;5.60;4.83;;;;;;;19.60;53.88;100903.34;;;;-51
2021/11/16 13:05:54;;;;;;;5.79;5.11;;;;;;;19.62;53.83;100900.03;;;;-59
2021/11/16 13:08:54;;;;;;;5.86;4.89;;;;;;;19.62;53.86;100901.02;;;;-59
2021/11/16 13:11:54;;;;;;;6.49;4.77;;;;;;;19.62;53.84;100896.95;;;;-54
2021/11/16 13:14:53;;;;;;;6.39;5.01;;;;;;;19.65;53.95;100899.73;;;;-54
2021/11/16 13:17:55;;;;;;;6.33;5.07;;;;;;;19.67;54.30;100895.08;;;;-49
2021/11/16 13:20:54;;;;;;;6.71;4.91;;;;;;;19.69;54.33;100888.34;;;;-52
2021/11/16 13:23:55;;;;;;;6.03;4.86;;;;;;;19.72;54.43;100890.36;;;;-48
2021/11/16 13:26:58;;;;;;;6.06;4.67;;;;;;;19.74;54.47;100889.73;;;;-47
2021/11/16 13:29:55;;;;;;;7.43;5.33;;;;;;;19.74;53.95;100879.64;;;;-50
2021/11/16 13:32:53;;;;;;;8.35;6.20;;;;;;;19.74;53.40;100882.73;;;;-50
2021/11/16 13:35:54;;;;;;;9.27;5.93;;;;;;;19.76;53.72;100881.05;;;;-50
2021/11/16 13:38:53;;;;;;;6.54;5.41;;;;;;;19.79;54.11;100878.06;;;;-52
2021/11/16 13:41:53;;;;;;;8.19;5.96;;;;;;;19.81;54.11;100874.19;;;;-52
2021/11/16 13:44:54;;;;;;;7.35;5.19;;;;;;;19.83;53.94;100874.70;;;;-48
2021/11/16 13:47:54;;;;;;;9.21;5.55;;;;;;;19.83;53.92;100870.23;;;;-50
2021/11/16 13:50:53;;;;;;;8.90;5.77;;;;;;;19.87;54.23;100867.34;;;;-56
2021/11/16 13:53:54;;;;;;;7.69;5.29;;;;;;;19.88;54.22;100873.52;;;;-49
2021/11/16 13:56:54;;;;;;;6.34;4.97;;;;;;;19.88;54.24;100870.13;;;;-52
2021/11/16 13:59:54;;;;;;;6.49;5.08;;;;;;;19.89;54.15;100870.70;;;;-54
2021/11/16 14:02:54;;;;;;;6.79;5.04;;;;;;;19.92;54.56;100864.05;;;;-50
2021/11/16 14:05:53;;;;;;;9.58;5.55;;;;;;;19.92;53.83;100862.75;;;;-52
2021/11/16 14:08:53;;;;;;;7.57;5.81;;;;;;;19.91;53.86;100867.06;;;;-53
2021/11/16 14:11:53;;;;;;;8.51;5.82;;;;;;;19.90;53.78;100870.00;;;;-51
2021/11/16 14:14:53;;;;;;;10.06;5.93;;;;;;;19.90;53.40;100868.37;;;;-46
2021/11/16 14:17:54;;;;;;;7.91;5.88;;;;;;;19.90;53.34;100863.95;;;;-57
2021/11/16 14:20:54;;;;;;;7.07;5.85;;;;;;;19.90;53.17;100862.44;;;;-55
2021/11/16 14:23:54;;;;;;;7.07;5.65;;;;;;;19.90;53.22;100865.60;;;;-58
2021/11/16 14:26:54;;;;;;;8.00;5.73;;;;;;;19.91;53.03;100863.65;;;;-51
2021/11/16 14:29:54;;;;;;;10.03;5.46;;;;;;;19.91;53.50;100865.92;;;;-51
2021/11/16 14:32:53;;;;;;;9.79;5.58;;;;;;;19.92;53.69;100864.66;;;;-55
2021/11/16 14:35:54;;;;;;;21.28;5.23;;;;;;;19.91;53.84;100860.23;;;;-55
2021/11/16 14:38:53;;;;;;;7.13;5.56;;;;;;;19.90;53.40;100860.64;;;;-52
2021/11/16 14:41:54;;;;;;;7.91;6.07;;;;;;;19.90;53.33;100861.70;;;;-53
2021/11/16 14:44:55;;;;;;;6.69;5.42;;;;;;;19.93;53.80;100852.53;;;;-53
2021/11/16 14:47:56;;;;;;;9.89;5.21;;;;;;;19.99;54.08;100863.33;;;;-53
2021/11/16 14:50:57;;;;;;;7.45;5.24;;;;;;;20.03;54.33;100860.53;;;;-45
2021/11/16 14:53:54;;;;;;;7.71;5.00;;;;;;;20.05;54.11;100860.47;;;;-50
2021/11/16 14:56:53;;;;;;;7.41;5.33;;;;;;;20.04;53.85;100858.81;;;;-54
2021/11/16 14:59:54;;;;;;;7.38;5.09;;;;;;;20.05;53.74;100866.00;;;;-57
2021/11/16 15:02:54;;;;;;;6.71;4.97;;;;;;;20.07;53.89;100862.69;;;;-60
2021/11/16 15:05:53;;;;;;;6.41;4.91;;;;;;;20.07;54.02;100862.61;;;;-53
2021/11/16 15:08:54;;;;;;;5.97;4.99;;;;;;;20.08;54.16;100861.14;;;;-54
2021/11/16 15:11:54;;;;;;;7.49;5.11;;;;;;;20.09;54.24;100869.38;;;;-54
2021/11/16 15:14:54;;;;;;;7.23;4.81;;;;;;;20.11;54.24;100869.08;;;;-54
2021/11/16 15:17:55;;;;;;;6.41;4.96;;;;;;;20.12;54.07;100864.92;;;;-53
2021/11/16 15:21:00;;;;;;;6.99;5.27;;;;;;;20.13;54.15;100863.24;;;;-47
2021/11/16 15:24:00;;;;;;;6.31;4.97;;;;;;;20.16;54.15;100862.61;;;;-51
2021/11/16 15:26:54;;;;;;;7.11;5.01;;;;;;;20.17;54.40;100863.61;;;;-49
2021/11/16 15:29:53;;;;;;;7.83;4.71;;;;;;;20.19;54.30;100861.43;;;;-51
2021/11/16 15:32:54;;;;;;;5.78;4.59;;;;;;;20.20;54.42;100855.16;;;;-47
2021/11/16 15:35:54;;;;;;;6.04;4.86;;;;;;;20.20;54.19;100857.84;;;;-50
2021/11/16 15:38:56;;;;;;;5.31;4.51;;;;;;;20.21;54.30;100859.34;;;;-45
2021/11/16 15:42:09;;;;;;;9.03;4.80;;;;;;;20.22;54.17;100856.97;;;;-49
2021/11/16 15:45:00;;;;;;;5.48;4.78;;;;;;;20.23;54.21;100857.37;;;;-57
2021/11/16 15:48:06;;;;;;;6.11;4.95;;;;;;;20.23;53.92;100852.73;;;;-59
2021/11/16 15:51:11;;;;;;;8.23;5.23;;;;;;;20.22;53.90;100853.80;;;;-47
2021/11/16 15:57:26;;;;;;;6.79;4.73;;;;;;;20.21;53.82;100858.09;;;;-47
2021/11/16 15:59:54;;;;;;;6.33;5.05;;;;;;;20.19;53.69;100858.66;;;;-47
2021/11/16 16:02:54;;;;;;;7.87;4.67;;;;;;;20.17;53.65;100853.35;;;;-50
2021/11/16 16:05:54;;;;;;;6.28;4.49;;;;;;;20.17;53.66;100847.25;;;;-50
2021/11/16 16:08:53;;;;;;;5.58;4.62;;;;;;;20.16;53.61;100848.45;;;;-50
2021/11/16 16:11:54;;;;;;;6.85;4.49;;;;;;;20.15;53.55;100851.30;;;;-50
2021/11/16 16:14:53;;;;;;;5.11;4.59;;;;;;;20.15;53.60;100847.28;;;;-49
2021/11/16 16:17:54;;;;;;;5.43;4.45;;;;;;;20.14;53.55;100849.16;;;;-46
2021/11/16 16:20:55;;;;;;;6.41;4.57;;;;;;;20.13;53.56;100850.68;;;;-47
2021/11/16 16:23:56;;;;;;;5.77;4.55;;;;;;;20.12;53.54;100850.84;;;;-47
2021/11/16 16:26:54;;;;;;;5.47;4.62;;;;;;;20.11;53.51;100851.09;;;;-47
2021/11/16 16:29:54;;;;;;;5.04;4.40;;;;;;;20.11;53.49;100850.12;;;;-47
2021/11/16 16:32:54;;;;;;;5.69;4.65;;;;;;;20.10;53.48;100849.36;;;;-46
2021/11/16 16:35:54;;;;;;;6.66;4.79;;;;;;;20.08;53.50;100845.84;;;;-46
2021/11/16 16:38:53;;;;;;;6.95;4.67;;;;;;;20.08;53.45;100849.42;;;;-46
2021/11/16 16:41:54;;;;;;;5.41;4.51;;;;;;;20.08;53.48;100849.99;;;;-47
2021/11/16 16:44:54;;;;;;;6.07;4.54;;;;;;;20.07;53.50;100850.23;;;;-46
2021/11/16 16:47:53;;;;;;;5.15;4.47;;;;;;;20.07;53.45;100850.16;;;;-52